sensor_id;sensor_type;location;lat;lon;timestamp;P1;durP1;ratioP1;P2;durP2;ratioP2
45077;SDS011;60508;42.622;25.416;2022-12-18T00:02:18;20.80;;;15.38;;
45077;SDS011;60508;42.622;25.416;2022-12-18T00:04:44;27.83;;;15.77;;
45077;SDS011;60508;42.622;25.416;2022-12-18T00:07:10;27.70;;;14.85;;
45077;SDS011;60508;42.622;25.416;2022-12-18T00:09:36;20.65;;;13.30;;
45077;SDS011;60508;42.622;25.416;2022-12-18T00:12:02;18.42;;;12.55;;
45077;SDS011;60508;42.622;25.416;2022-12-18T00:14:28;21.15;;;12.27;;
45077;SDS011;60508;42.622;25.416;2022-12-18T00:16:53;21.33;;;14.02;;
45077;SDS011;60508;42.622;25.416;2022-12-18T00:19:19;17.42;;;12.30;;
45077;SDS011;60508;42.622;25.416;2022-12-18T00:21:45;16.58;;;11.73;;
45077;SDS011;60508;42.622;25.416;2022-12-18T00:24:11;17.05;;;11.48;;
45077;SDS011;60508;42.622;25.416;2022-12-18T00:26:37;20.70;;;11.73;;
45077;SDS011;60508;42.622;25.416;2022-12-18T00:29:09;15.52;;;11.10;;
45077;SDS011;60508;42.622;25.416;2022-12-18T00:31:39;15.95;;;10.60;;
45077;SDS011;60508;42.622;25.416;2022-12-18T00:34:05;16.45;;;10.57;;
45077;SDS011;60508;42.622;25.416;2022-12-18T00:36:32;13.60;;;10.02;;
45077;SDS011;60508;42.622;25.416;2022-12-18T00:38:59;13.52;;;9.43;;
45077;SDS011;60508;42.622;25.416;2022-12-18T00:41:29;11.90;;;8.73;;
45077;SDS011;60508;42.622;25.416;2022-12-18T00:44:15;13.65;;;8.98;;
45077;SDS011;60508;42.622;25.416;2022-12-18T00:46:42;14.75;;;9.57;;
45077;SDS011;60508;42.622;25.416;2022-12-18T00:49:09;11.60;;;8.45;;
45077;SDS011;60508;42.622;25.416;2022-12-18T00:51:37;12.90;;;7.70;;
45077;SDS011;60508;42.622;25.416;2022-12-18T00:54:03;13.00;;;7.80;;
45077;SDS011;60508;42.622;25.416;2022-12-18T00:56:30;17.63;;;9.43;;
45077;SDS011;60508;42.622;25.416;2022-12-18T00:58:56;13.18;;;7.85;;
45077;SDS011;60508;42.622;25.416;2022-12-18T01:01:21;12.48;;;7.45;;
45077;SDS011;60508;42.622;25.416;2022-12-18T01:03:47;13.52;;;8.13;;
45077;SDS011;60508;42.622;25.416;2022-12-18T01:06:16;11.07;;;7.30;;
45077;SDS011;60508;42.622;25.416;2022-12-18T01:08:42;12.27;;;8.13;;
45077;SDS011;60508;42.622;25.416;2022-12-18T01:13:40;11.50;;;6.40;;
45077;SDS011;60508;42.622;25.416;2022-12-18T01:16:06;13.85;;;7.18;;
45077;SDS011;60508;42.622;25.416;2022-12-18T01:18:34;12.60;;;8.27;;
45077;SDS011;60508;42.622;25.416;2022-12-18T01:21:02;10.98;;;7.18;;
45077;SDS011;60508;42.622;25.416;2022-12-18T01:23:31;12.73;;;7.75;;
45077;SDS011;60508;42.622;25.416;2022-12-18T01:26:04;16.25;;;9.30;;
45077;SDS011;60508;42.622;25.416;2022-12-18T01:28:33;13.60;;;9.00;;
45077;SDS011;60508;42.622;25.416;2022-12-18T01:33:38;20.20;;;8.32;;
45077;SDS011;60508;42.622;25.416;2022-12-18T01:36:05;12.60;;;9.43;;
45077;SDS011;60508;42.622;25.416;2022-12-18T01:38:31;16.20;;;10.30;;
45077;SDS011;60508;42.622;25.416;2022-12-18T01:40:58;15.20;;;9.88;;
45077;SDS011;60508;42.622;25.416;2022-12-18T01:46:26;13.52;;;9.20;;
45077;SDS011;60508;42.622;25.416;2022-12-18T01:51:26;16.08;;;10.07;;
45077;SDS011;60508;42.622;25.416;2022-12-18T01:53:53;14.30;;;9.48;;
45077;SDS011;60508;42.622;25.416;2022-12-18T01:56:20;11.52;;;8.60;;
45077;SDS011;60508;42.622;25.416;2022-12-18T01:58:53;12.30;;;8.57;;
45077;SDS011;60508;42.622;25.416;2022-12-18T02:01:31;14.25;;;8.98;;
45077;SDS011;60508;42.622;25.416;2022-12-18T02:06:44;19.40;;;8.95;;
45077;SDS011;60508;42.622;25.416;2022-12-18T02:09:25;22.38;;;14.43;;
45077;SDS011;60508;42.622;25.416;2022-12-18T02:12:13;14.00;;;10.85;;
45077;SDS011;60508;42.622;25.416;2022-12-18T02:17:18;12.05;;;9.38;;
45077;SDS011;60508;42.622;25.416;2022-12-18T02:25:05;20.80;;;12.77;;
45077;SDS011;60508;42.622;25.416;2022-12-18T02:27:40;22.33;;;12.98;;
45077;SDS011;60508;42.622;25.416;2022-12-18T02:30:10;22.88;;;16.98;;
45077;SDS011;60508;42.622;25.416;2022-12-18T02:32:41;30.20;;;14.13;;
45077;SDS011;60508;42.622;25.416;2022-12-18T02:35:15;21.05;;;13.65;;
45077;SDS011;60508;42.622;25.416;2022-12-18T02:37:47;20.88;;;13.05;;
45077;SDS011;60508;42.622;25.416;2022-12-18T02:40:13;16.05;;;11.43;;
45077;SDS011;60508;42.622;25.416;2022-12-18T02:42:41;17.65;;;11.57;;
45077;SDS011;60508;42.622;25.416;2022-12-18T02:45:10;20.20;;;12.32;;
45077;SDS011;60508;42.622;25.416;2022-12-18T02:47:37;17.58;;;12.77;;
45077;SDS011;60508;42.622;25.416;2022-12-18T02:53:30;17.55;;;11.82;;
45077;SDS011;60508;42.622;25.416;2022-12-18T02:56:09;16.17;;;11.13;;
45077;SDS011;60508;42.622;25.416;2022-12-18T03:04:43;12.15;;;9.55;;
45077;SDS011;60508;42.622;25.416;2022-12-18T03:07:21;19.27;;;10.93;;
45077;SDS011;60508;42.622;25.416;2022-12-18T03:09:53;15.07;;;9.65;;
45077;SDS011;60508;42.622;25.416;2022-12-18T03:12:30;12.95;;;9.38;;
45077;SDS011;60508;42.622;25.416;2022-12-18T03:15:03;12.45;;;7.82;;
45077;SDS011;60508;42.622;25.416;2022-12-18T03:17:36;11.05;;;8.48;;
45077;SDS011;60508;42.622;25.416;2022-12-18T03:20:14;10.77;;;7.87;;
45077;SDS011;60508;42.622;25.416;2022-12-18T03:22:45;8.70;;;6.68;;
45077;SDS011;60508;42.622;25.416;2022-12-18T03:25:15;10.43;;;7.32;;
45077;SDS011;60508;42.622;25.416;2022-12-18T03:27:46;9.43;;;7.55;;
45077;SDS011;60508;42.622;25.416;2022-12-18T03:30:16;12.88;;;7.40;;
45077;SDS011;60508;42.622;25.416;2022-12-18T03:37:43;13.30;;;7.82;;
45077;SDS011;60508;42.622;25.416;2022-12-18T03:40:10;13.02;;;8.20;;
45077;SDS011;60508;42.622;25.416;2022-12-18T03:48:17;15.07;;;9.48;;
45077;SDS011;60508;42.622;25.416;2022-12-18T03:50:58;13.65;;;10.60;;
45077;SDS011;60508;42.622;25.416;2022-12-18T03:56:06;10.57;;;7.07;;
45077;SDS011;60508;42.622;25.416;2022-12-18T03:58:37;13.13;;;7.43;;
45077;SDS011;60508;42.622;25.416;2022-12-18T04:01:15;11.43;;;7.15;;
45077;SDS011;60508;42.622;25.416;2022-12-18T04:03:43;10.18;;;7.35;;
45077;SDS011;60508;42.622;25.416;2022-12-18T04:06:12;13.38;;;8.77;;
45077;SDS011;60508;42.622;25.416;2022-12-18T04:08:41;9.40;;;6.45;;
45077;SDS011;60508;42.622;25.416;2022-12-18T04:13:37;10.73;;;6.95;;
45077;SDS011;60508;42.622;25.416;2022-12-18T04:16:07;8.38;;;6.78;;
45077;SDS011;60508;42.622;25.416;2022-12-18T04:18:38;11.38;;;7.28;;
45077;SDS011;60508;42.622;25.416;2022-12-18T04:21:04;13.98;;;8.45;;
45077;SDS011;60508;42.622;25.416;2022-12-18T04:23:31;9.45;;;7.05;;
45077;SDS011;60508;42.622;25.416;2022-12-18T04:25:58;13.50;;;7.20;;
45077;SDS011;60508;42.622;25.416;2022-12-18T04:28:46;10.82;;;8.35;;
45077;SDS011;60508;42.622;25.416;2022-12-18T04:31:12;12.23;;;9.27;;
45077;SDS011;60508;42.622;25.416;2022-12-18T04:33:38;12.15;;;9.18;;
45077;SDS011;60508;42.622;25.416;2022-12-18T04:36:05;11.05;;;8.88;;
45077;SDS011;60508;42.622;25.416;2022-12-18T04:38:31;12.77;;;9.10;;
45077;SDS011;60508;42.622;25.416;2022-12-18T04:41:04;12.68;;;10.00;;
45077;SDS011;60508;42.622;25.416;2022-12-18T04:43:30;18.40;;;11.15;;
45077;SDS011;60508;42.622;25.416;2022-12-18T04:46:02;18.70;;;11.40;;
45077;SDS011;60508;42.622;25.416;2022-12-18T04:48:29;18.27;;;12.52;;
45077;SDS011;60508;42.622;25.416;2022-12-18T04:50:55;18.23;;;12.70;;
45077;SDS011;60508;42.622;25.416;2022-12-18T04:53:20;21.48;;;14.95;;
45077;SDS011;60508;42.622;25.416;2022-12-18T04:55:46;18.73;;;13.65;;
45077;SDS011;60508;42.622;25.416;2022-12-18T04:58:12;26.75;;;13.93;;
45077;SDS011;60508;42.622;25.416;2022-12-18T05:00:38;18.92;;;14.18;;
45077;SDS011;60508;42.622;25.416;2022-12-18T05:03:04;17.55;;;12.75;;
45077;SDS011;60508;42.622;25.416;2022-12-18T05:05:29;15.88;;;11.95;;
45077;SDS011;60508;42.622;25.416;2022-12-18T05:07:55;14.23;;;10.38;;
45077;SDS011;60508;42.622;25.416;2022-12-18T05:10:21;16.05;;;10.80;;
45077;SDS011;60508;42.622;25.416;2022-12-18T05:12:47;17.65;;;9.02;;
45077;SDS011;60508;42.622;25.416;2022-12-18T05:15:28;12.55;;;8.90;;
45077;SDS011;60508;42.622;25.416;2022-12-18T05:17:56;9.55;;;7.28;;
45077;SDS011;60508;42.622;25.416;2022-12-18T05:20:22;12.90;;;7.63;;
45077;SDS011;60508;42.622;25.416;2022-12-18T05:22:48;11.48;;;7.00;;
45077;SDS011;60508;42.622;25.416;2022-12-18T05:25:14;7.93;;;7.00;;
45077;SDS011;60508;42.622;25.416;2022-12-18T05:27:40;13.27;;;7.40;;
45077;SDS011;60508;42.622;25.416;2022-12-18T05:30:06;12.60;;;6.70;;
45077;SDS011;60508;42.622;25.416;2022-12-18T05:32:33;11.63;;;7.53;;
45077;SDS011;60508;42.622;25.416;2022-12-18T05:34:59;11.45;;;7.30;;
45077;SDS011;60508;42.622;25.416;2022-12-18T05:37:25;7.32;;;5.28;;
45077;SDS011;60508;42.622;25.416;2022-12-18T05:39:50;12.88;;;5.55;;
45077;SDS011;60508;42.622;25.416;2022-12-18T05:42:16;12.90;;;5.68;;
45077;SDS011;60508;42.622;25.416;2022-12-18T05:44:42;6.57;;;5.68;;
45077;SDS011;60508;42.622;25.416;2022-12-18T05:47:09;6.18;;;5.00;;
45077;SDS011;60508;42.622;25.416;2022-12-18T05:49:34;8.98;;;6.05;;
45077;SDS011;60508;42.622;25.416;2022-12-18T05:52:01;30.25;;;12.07;;
45077;SDS011;60508;42.622;25.416;2022-12-18T05:54:27;30.08;;;12.40;;
45077;SDS011;60508;42.622;25.416;2022-12-18T05:56:53;28.40;;;11.90;;
45077;SDS011;60508;42.622;25.416;2022-12-18T05:59:19;13.00;;;5.90;;
45077;SDS011;60508;42.622;25.416;2022-12-18T06:01:45;11.55;;;7.10;;
45077;SDS011;60508;42.622;25.416;2022-12-18T06:04:11;11.25;;;6.80;;
45077;SDS011;60508;42.622;25.416;2022-12-18T06:06:37;12.40;;;7.63;;
45077;SDS011;60508;42.622;25.416;2022-12-18T06:09:04;9.38;;;6.70;;
45077;SDS011;60508;42.622;25.416;2022-12-18T06:11:34;10.93;;;6.32;;
45077;SDS011;60508;42.622;25.416;2022-12-18T06:14:01;9.82;;;6.22;;
45077;SDS011;60508;42.622;25.416;2022-12-18T06:16:28;7.25;;;5.68;;
45077;SDS011;60508;42.622;25.416;2022-12-18T06:19:01;16.30;;;12.10;;
45077;SDS011;60508;42.622;25.416;2022-12-18T06:21:30;20.73;;;12.48;;
45077;SDS011;60508;42.622;25.416;2022-12-18T06:23:55;22.67;;;13.20;;
45077;SDS011;60508;42.622;25.416;2022-12-18T06:26:22;22.17;;;12.55;;
45077;SDS011;60508;42.622;25.416;2022-12-18T06:28:49;21.45;;;13.13;;
45077;SDS011;60508;42.622;25.416;2022-12-18T06:31:14;19.98;;;13.05;;
45077;SDS011;60508;42.622;25.416;2022-12-18T06:33:40;24.15;;;15.00;;
45077;SDS011;60508;42.622;25.416;2022-12-18T06:36:11;21.83;;;14.65;;
45077;SDS011;60508;42.622;25.416;2022-12-18T06:43:02;29.50;;;16.65;;
45077;SDS011;60508;42.622;25.416;2022-12-18T06:45:28;21.63;;;15.60;;
45077;SDS011;60508;42.622;25.416;2022-12-18T06:47:54;24.02;;;14.45;;
45077;SDS011;60508;42.622;25.416;2022-12-18T06:50:19;24.35;;;14.52;;
45077;SDS011;60508;42.622;25.416;2022-12-18T06:52:45;21.38;;;13.60;;
45077;SDS011;60508;42.622;25.416;2022-12-18T06:55:11;17.70;;;12.38;;
45077;SDS011;60508;42.622;25.416;2022-12-18T06:57:37;16.90;;;10.80;;
45077;SDS011;60508;42.622;25.416;2022-12-18T07:00:04;17.02;;;10.93;;
45077;SDS011;60508;42.622;25.416;2022-12-18T07:02:31;15.73;;;9.70;;
45077;SDS011;60508;42.622;25.416;2022-12-18T07:04:58;14.15;;;10.65;;
45077;SDS011;60508;42.622;25.416;2022-12-18T07:07:24;10.15;;;7.05;;
45077;SDS011;60508;42.622;25.416;2022-12-18T07:09:50;9.57;;;5.97;;
45077;SDS011;60508;42.622;25.416;2022-12-18T07:12:16;12.35;;;6.38;;
45077;SDS011;60508;42.622;25.416;2022-12-18T07:14:42;14.45;;;7.60;;
45077;SDS011;60508;42.622;25.416;2022-12-18T07:17:08;13.05;;;8.15;;
45077;SDS011;60508;42.622;25.416;2022-12-18T07:19:34;11.95;;;8.60;;
45077;SDS011;60508;42.622;25.416;2022-12-18T07:22:00;16.30;;;11.02;;
45077;SDS011;60508;42.622;25.416;2022-12-18T07:24:27;17.73;;;10.48;;
45077;SDS011;60508;42.622;25.416;2022-12-18T07:26:53;19.42;;;11.75;;
45077;SDS011;60508;42.622;25.416;2022-12-18T07:29:19;21.20;;;12.00;;
45077;SDS011;60508;42.622;25.416;2022-12-18T07:31:45;19.55;;;12.93;;
45077;SDS011;60508;42.622;25.416;2022-12-18T07:34:11;24.02;;;17.15;;
45077;SDS011;60508;42.622;25.416;2022-12-18T07:36:38;13.52;;;9.77;;
45077;SDS011;60508;42.622;25.416;2022-12-18T07:39:04;14.85;;;9.75;;
45077;SDS011;60508;42.622;25.416;2022-12-18T07:41:30;7.65;;;6.35;;
45077;SDS011;60508;42.622;25.416;2022-12-18T07:43:59;8.13;;;6.45;;
45077;SDS011;60508;42.622;25.416;2022-12-18T07:46:24;7.60;;;6.00;;
45077;SDS011;60508;42.622;25.416;2022-12-18T07:48:50;7.32;;;4.85;;
45077;SDS011;60508;42.622;25.416;2022-12-18T07:51:16;8.15;;;4.50;;
45077;SDS011;60508;42.622;25.416;2022-12-18T07:53:43;6.63;;;5.28;;
45077;SDS011;60508;42.622;25.416;2022-12-18T07:56:10;8.80;;;5.47;;
45077;SDS011;60508;42.622;25.416;2022-12-18T07:58:37;7.28;;;5.85;;
45077;SDS011;60508;42.622;25.416;2022-12-18T08:01:07;6.40;;;5.68;;
45077;SDS011;60508;42.622;25.416;2022-12-18T08:03:35;6.95;;;5.28;;
45077;SDS011;60508;42.622;25.416;2022-12-18T08:06:02;4.70;;;4.22;;
45077;SDS011;60508;42.622;25.416;2022-12-18T08:08:29;17.90;;;4.15;;
45077;SDS011;60508;42.622;25.416;2022-12-18T08:10:56;4.88;;;4.10;;
45077;SDS011;60508;42.622;25.416;2022-12-18T08:13:22;4.55;;;3.08;;
45077;SDS011;60508;42.622;25.416;2022-12-18T08:18:28;4.18;;;3.40;;
45077;SDS011;60508;42.622;25.416;2022-12-18T08:20:54;4.32;;;3.72;;
45077;SDS011;60508;42.622;25.416;2022-12-18T08:23:21;4.30;;;3.88;;
45077;SDS011;60508;42.622;25.416;2022-12-18T08:25:47;6.43;;;5.47;;
45077;SDS011;60508;42.622;25.416;2022-12-18T08:28:13;6.70;;;5.60;;
45077;SDS011;60508;42.622;25.416;2022-12-18T08:30:41;7.07;;;4.28;;
45077;SDS011;60508;42.622;25.416;2022-12-18T08:33:08;5.60;;;5.10;;
45077;SDS011;60508;42.622;25.416;2022-12-18T08:35:36;5.32;;;4.05;;
45077;SDS011;60508;42.622;25.416;2022-12-18T08:38:03;9.20;;;7.13;;
45077;SDS011;60508;42.622;25.416;2022-12-18T08:40:29;5.13;;;4.35;;
45077;SDS011;60508;42.622;25.416;2022-12-18T08:42:55;5.53;;;4.03;;
45077;SDS011;60508;42.622;25.416;2022-12-18T08:45:39;4.78;;;4.30;;
45077;SDS011;60508;42.622;25.416;2022-12-18T08:48:05;4.75;;;4.28;;
45077;SDS011;60508;42.622;25.416;2022-12-18T08:50:31;5.82;;;4.40;;
45077;SDS011;60508;42.622;25.416;2022-12-18T08:52:57;8.65;;;5.90;;
45077;SDS011;60508;42.622;25.416;2022-12-18T08:55:23;8.35;;;6.70;;
45077;SDS011;60508;42.622;25.416;2022-12-18T08:57:50;9.75;;;5.03;;
45077;SDS011;60508;42.622;25.416;2022-12-18T09:00:16;8.10;;;5.47;;
45077;SDS011;60508;42.622;25.416;2022-12-18T09:02:42;7.32;;;4.90;;
45077;SDS011;60508;42.622;25.416;2022-12-18T09:05:08;13.05;;;7.20;;
45077;SDS011;60508;42.622;25.416;2022-12-18T09:07:34;14.15;;;7.80;;
45077;SDS011;60508;42.622;25.416;2022-12-18T09:10:00;12.13;;;6.50;;
45077;SDS011;60508;42.622;25.416;2022-12-18T09:12:26;13.52;;;7.40;;
45077;SDS011;60508;42.622;25.416;2022-12-18T09:14:52;26.00;;;10.77;;
45077;SDS011;60508;42.622;25.416;2022-12-18T09:17:18;8.95;;;5.85;;
45077;SDS011;60508;42.622;25.416;2022-12-18T09:19:44;9.48;;;6.78;;
45077;SDS011;60508;42.622;25.416;2022-12-18T09:22:10;10.85;;;8.68;;
45077;SDS011;60508;42.622;25.416;2022-12-18T09:24:36;10.25;;;5.15;;
45077;SDS011;60508;42.622;25.416;2022-12-18T09:27:02;9.30;;;5.68;;
45077;SDS011;60508;42.622;25.416;2022-12-18T09:29:28;7.45;;;5.80;;
45077;SDS011;60508;42.622;25.416;2022-12-18T09:31:54;12.60;;;6.38;;
45077;SDS011;60508;42.622;25.416;2022-12-18T09:34:20;6.63;;;4.47;;
45077;SDS011;60508;42.622;25.416;2022-12-18T09:36:47;7.40;;;4.97;;
45077;SDS011;60508;42.622;25.416;2022-12-18T09:39:13;7.63;;;5.45;;
45077;SDS011;60508;42.622;25.416;2022-12-18T09:47:10;7.50;;;5.70;;
45077;SDS011;60508;42.622;25.416;2022-12-18T09:49:42;7.63;;;5.35;;
45077;SDS011;60508;42.622;25.416;2022-12-18T09:54:50;12.13;;;7.63;;
45077;SDS011;60508;42.622;25.416;2022-12-18T09:57:21;12.43;;;7.43;;
45077;SDS011;60508;42.622;25.416;2022-12-18T09:59:53;28.58;;;16.63;;
45077;SDS011;60508;42.622;25.416;2022-12-18T10:02:25;20.67;;;10.57;;
45077;SDS011;60508;42.622;25.416;2022-12-18T10:16:22;18.90;;;10.50;;
45077;SDS011;60508;42.622;25.416;2022-12-18T10:21:18;13.02;;;7.50;;
45077;SDS011;60508;42.622;25.416;2022-12-18T10:26:55;14.63;;;7.38;;
45077;SDS011;60508;42.622;25.416;2022-12-18T10:29:34;11.40;;;7.00;;
45077;SDS011;60508;42.622;25.416;2022-12-18T10:32:00;14.45;;;8.20;;
45077;SDS011;60508;42.622;25.416;2022-12-18T10:34:26;10.15;;;6.53;;
45077;SDS011;60508;42.622;25.416;2022-12-18T10:36:52;7.50;;;5.88;;
45077;SDS011;60508;42.622;25.416;2022-12-18T10:39:22;13.23;;;8.05;;
45077;SDS011;60508;42.622;25.416;2022-12-18T10:41:52;14.25;;;8.02;;
45077;SDS011;60508;42.622;25.416;2022-12-18T10:44:35;9.48;;;6.60;;
45077;SDS011;60508;42.622;25.416;2022-12-18T10:47:04;8.45;;;5.80;;
45077;SDS011;60508;42.622;25.416;2022-12-18T10:49:36;10.93;;;8.23;;
45077;SDS011;60508;42.622;25.416;2022-12-18T10:52:14;8.43;;;6.88;;
45077;SDS011;60508;42.622;25.416;2022-12-18T10:59:52;18.60;;;13.35;;
45077;SDS011;60508;42.622;25.416;2022-12-18T11:02:25;17.50;;;10.32;;
45077;SDS011;60508;42.622;25.416;2022-12-18T11:04:52;14.95;;;10.43;;
45077;SDS011;60508;42.622;25.416;2022-12-18T11:07:18;14.95;;;9.90;;
45077;SDS011;60508;42.622;25.416;2022-12-18T11:09:44;16.33;;;9.23;;
45077;SDS011;60508;42.622;25.416;2022-12-18T11:12:25;15.63;;;9.05;;
45077;SDS011;60508;42.622;25.416;2022-12-18T11:14:57;14.77;;;8.20;;
45077;SDS011;60508;42.622;25.416;2022-12-18T11:20:07;12.20;;;7.40;;
45077;SDS011;60508;42.622;25.416;2022-12-18T11:23:11;16.65;;;10.60;;
45077;SDS011;60508;42.622;25.416;2022-12-18T11:25:38;12.73;;;7.65;;
45077;SDS011;60508;42.622;25.416;2022-12-18T11:35:10;9.73;;;6.75;;
45077;SDS011;60508;42.622;25.416;2022-12-18T11:37:37;16.38;;;8.25;;
45077;SDS011;60508;42.622;25.416;2022-12-18T11:40:12;11.90;;;7.90;;
45077;SDS011;60508;42.622;25.416;2022-12-18T11:45:30;11.90;;;9.20;;
45077;SDS011;60508;42.622;25.416;2022-12-18T11:51:09;13.43;;;9.98;;
45077;SDS011;60508;42.622;25.416;2022-12-18T11:53:28;15.80;;;9.05;;
45077;SDS011;60508;42.622;25.416;2022-12-18T12:01:18;17.73;;;8.02;;
45077;SDS011;60508;42.622;25.416;2022-12-18T12:06:31;10.65;;;6.97;;
45077;SDS011;60508;42.622;25.416;2022-12-18T12:09:15;31.80;;;20.60;;
45077;SDS011;60508;42.622;25.416;2022-12-18T12:21:09;9.43;;;6.80;;
45077;SDS011;60508;42.622;25.416;2022-12-18T12:29:33;18.50;;;9.77;;
45077;SDS011;60508;42.622;25.416;2022-12-18T12:39:58;20.65;;;12.45;;
45077;SDS011;60508;42.622;25.416;2022-12-18T12:42:30;20.25;;;11.85;;
45077;SDS011;60508;42.622;25.416;2022-12-18T12:45:26;17.95;;;9.23;;
45077;SDS011;60508;42.622;25.416;2022-12-18T12:47:58;20.23;;;10.10;;
45077;SDS011;60508;42.622;25.416;2022-12-18T12:50:30;19.30;;;10.15;;
45077;SDS011;60508;42.622;25.416;2022-12-18T12:52:59;13.38;;;8.20;;
45077;SDS011;60508;42.622;25.416;2022-12-18T12:55:31;27.08;;;12.73;;
45077;SDS011;60508;42.622;25.416;2022-12-18T13:00:39;6.75;;;5.40;;
45077;SDS011;60508;42.622;25.416;2022-12-18T13:03:13;7.63;;;5.38;;
45077;SDS011;60508;42.622;25.416;2022-12-18T13:06:02;12.20;;;9.02;;
45077;SDS011;60508;42.622;25.416;2022-12-18T13:08:31;15.93;;;11.10;;
45077;SDS011;60508;42.622;25.416;2022-12-18T13:11:29;17.50;;;11.90;;
45077;SDS011;60508;42.622;25.416;2022-12-18T13:14:22;12.05;;;8.35;;
45077;SDS011;60508;42.622;25.416;2022-12-18T13:17:15;50.33;;;12.95;;
45077;SDS011;60508;42.622;25.416;2022-12-18T13:20:03;11.65;;;8.40;;
45077;SDS011;60508;42.622;25.416;2022-12-18T13:22:35;19.10;;;9.07;;
45077;SDS011;60508;42.622;25.416;2022-12-18T13:25:25;16.27;;;9.55;;
45077;SDS011;60508;42.622;25.416;2022-12-18T13:41:01;12.52;;;8.70;;
45077;SDS011;60508;42.622;25.416;2022-12-18T13:43:30;33.63;;;19.30;;
45077;SDS011;60508;42.622;25.416;2022-12-18T13:46:06;21.10;;;13.05;;
45077;SDS011;60508;42.622;25.416;2022-12-18T13:48:53;15.10;;;9.35;;
45077;SDS011;60508;42.622;25.416;2022-12-18T13:51:20;20.33;;;11.48;;
45077;SDS011;60508;42.622;25.416;2022-12-18T13:53:51;16.60;;;8.93;;
45077;SDS011;60508;42.622;25.416;2022-12-18T13:56:24;9.60;;;6.88;;
45077;SDS011;60508;42.622;25.416;2022-12-18T14:01:43;12.00;;;8.07;;
45077;SDS011;60508;42.622;25.416;2022-12-18T14:04:33;17.23;;;9.90;;
45077;SDS011;60508;42.622;25.416;2022-12-18T14:07:07;19.15;;;10.73;;
45077;SDS011;60508;42.622;25.416;2022-12-18T14:09:40;13.50;;;9.43;;
45077;SDS011;60508;42.622;25.416;2022-12-18T14:12:16;15.52;;;6.97;;
45077;SDS011;60508;42.622;25.416;2022-12-18T14:18:03;14.75;;;9.55;;
45077;SDS011;60508;42.622;25.416;2022-12-18T14:20:53;18.30;;;12.00;;
45077;SDS011;60508;42.622;25.416;2022-12-18T14:23:38;72.28;;;34.05;;
45077;SDS011;60508;42.622;25.416;2022-12-18T14:28:50;20.92;;;12.40;;
45077;SDS011;60508;42.622;25.416;2022-12-18T14:31:17;26.13;;;14.32;;
45077;SDS011;60508;42.622;25.416;2022-12-18T14:33:47;28.70;;;17.48;;
45077;SDS011;60508;42.622;25.416;2022-12-18T14:36:20;21.55;;;13.38;;
45077;SDS011;60508;42.622;25.416;2022-12-18T14:38:52;17.52;;;10.07;;
45077;SDS011;60508;42.622;25.416;2022-12-18T14:41:20;12.73;;;9.05;;
45077;SDS011;60508;42.622;25.416;2022-12-18T14:43:49;13.93;;;8.77;;
45077;SDS011;60508;42.622;25.416;2022-12-18T14:46:27;15.93;;;9.82;;
45077;SDS011;60508;42.622;25.416;2022-12-18T14:48:55;16.38;;;10.25;;
45077;SDS011;60508;42.622;25.416;2022-12-18T14:51:25;21.20;;;13.52;;
45077;SDS011;60508;42.622;25.416;2022-12-18T14:54:02;15.57;;;9.88;;
45077;SDS011;60508;42.622;25.416;2022-12-18T14:56:34;12.50;;;9.02;;
45077;SDS011;60508;42.622;25.416;2022-12-18T14:59:03;13.50;;;9.77;;
45077;SDS011;60508;42.622;25.416;2022-12-18T15:04:02;11.13;;;7.20;;
45077;SDS011;60508;42.622;25.416;2022-12-18T15:06:34;9.95;;;5.88;;
45077;SDS011;60508;42.622;25.416;2022-12-18T15:09:06;11.00;;;7.32;;
45077;SDS011;60508;42.622;25.416;2022-12-18T15:11:48;16.17;;;10.77;;
45077;SDS011;60508;42.622;25.416;2022-12-18T15:16:55;14.52;;;9.10;;
45077;SDS011;60508;42.622;25.416;2022-12-18T15:19:24;13.63;;;7.57;;
45077;SDS011;60508;42.622;25.416;2022-12-18T15:22:26;14.77;;;8.60;;
45077;SDS011;60508;42.622;25.416;2022-12-18T15:24:54;14.23;;;8.07;;
45077;SDS011;60508;42.622;25.416;2022-12-18T15:27:22;13.27;;;7.45;;
45077;SDS011;60508;42.622;25.416;2022-12-18T15:32:30;13.93;;;9.40;;
45077;SDS011;60508;42.622;25.416;2022-12-18T15:37:34;16.38;;;9.45;;
45077;SDS011;60508;42.622;25.416;2022-12-18T15:40:00;17.08;;;10.63;;
45077;SDS011;60508;42.622;25.416;2022-12-18T15:42:28;14.10;;;8.40;;
45077;SDS011;60508;42.622;25.416;2022-12-18T15:45:13;6.22;;;4.32;;
45077;SDS011;60508;42.622;25.416;2022-12-18T15:47:39;5.85;;;3.90;;
45077;SDS011;60508;42.622;25.416;2022-12-18T15:50:07;8.48;;;4.45;;
45077;SDS011;60508;42.622;25.416;2022-12-18T15:52:37;8.98;;;5.35;;
45077;SDS011;60508;42.622;25.416;2022-12-18T15:55:15;10.82;;;6.20;;
45077;SDS011;60508;42.622;25.416;2022-12-18T15:58:02;10.43;;;6.97;;
45077;SDS011;60508;42.622;25.416;2022-12-18T16:00:28;9.35;;;6.35;;
45077;SDS011;60508;42.622;25.416;2022-12-18T16:02:54;6.18;;;4.40;;
45077;SDS011;60508;42.622;25.416;2022-12-18T16:05:20;5.93;;;4.65;;
45077;SDS011;60508;42.622;25.416;2022-12-18T16:07:47;6.28;;;4.03;;
45077;SDS011;60508;42.622;25.416;2022-12-18T16:10:13;11.38;;;5.68;;
45077;SDS011;60508;42.622;25.416;2022-12-18T16:12:39;5.25;;;3.63;;
45077;SDS011;60508;42.622;25.416;2022-12-18T16:15:06;6.18;;;4.28;;
45077;SDS011;60508;42.622;25.416;2022-12-18T16:17:33;6.03;;;5.00;;
45077;SDS011;60508;42.622;25.416;2022-12-18T16:19:59;5.00;;;4.18;;
45077;SDS011;60508;42.622;25.416;2022-12-18T16:22:26;8.23;;;5.18;;
45077;SDS011;60508;42.622;25.416;2022-12-18T16:24:53;7.07;;;4.47;;
45077;SDS011;60508;42.622;25.416;2022-12-18T16:27:21;7.53;;;5.50;;
45077;SDS011;60508;42.622;25.416;2022-12-18T16:29:47;8.48;;;5.50;;
45077;SDS011;60508;42.622;25.416;2022-12-18T16:32:14;6.47;;;4.68;;
45077;SDS011;60508;42.622;25.416;2022-12-18T16:34:42;8.93;;;6.07;;
45077;SDS011;60508;42.622;25.416;2022-12-18T16:37:09;7.30;;;5.15;;
45077;SDS011;60508;42.622;25.416;2022-12-18T16:39:37;6.57;;;5.20;;
45077;SDS011;60508;42.622;25.416;2022-12-18T16:42:04;7.65;;;4.55;;
45077;SDS011;60508;42.622;25.416;2022-12-18T16:44:32;7.60;;;5.60;;
45077;SDS011;60508;42.622;25.416;2022-12-18T16:46:59;7.65;;;5.47;;
45077;SDS011;60508;42.622;25.416;2022-12-18T16:49:27;7.20;;;5.22;;
45077;SDS011;60508;42.622;25.416;2022-12-18T16:51:54;7.25;;;4.82;;
45077;SDS011;60508;42.622;25.416;2022-12-18T16:54:19;9.00;;;6.22;;
45077;SDS011;60508;42.622;25.416;2022-12-18T16:56:46;10.35;;;5.90;;
45077;SDS011;60508;42.622;25.416;2022-12-18T16:59:14;10.45;;;6.35;;
45077;SDS011;60508;42.622;25.416;2022-12-18T17:01:40;10.02;;;5.82;;
45077;SDS011;60508;42.622;25.416;2022-12-18T17:04:07;10.60;;;6.38;;
45077;SDS011;60508;42.622;25.416;2022-12-18T17:06:34;9.73;;;6.35;;
45077;SDS011;60508;42.622;25.416;2022-12-18T17:09:05;9.50;;;5.32;;
45077;SDS011;60508;42.622;25.416;2022-12-18T17:11:33;9.43;;;5.60;;
45077;SDS011;60508;42.622;25.416;2022-12-18T17:14:04;9.88;;;6.43;;
45077;SDS011;60508;42.622;25.416;2022-12-18T17:16:32;7.45;;;5.78;;
45077;SDS011;60508;42.622;25.416;2022-12-18T17:18:58;8.27;;;5.85;;
45077;SDS011;60508;42.622;25.416;2022-12-18T17:21:24;9.90;;;6.60;;